• Join FlightAware (Why Join?)
  • Login
  • US Flag 
06:23PM EST


 

Airport Tracker/Info


-or-


 

Live Flight TrackerFlight Track Log ✈ EGF3318 ✈ 23-Aug-2013 ✈ KORD - KSYR

Flight Track Log - Related Links

Times and Time Zones

All times are in EDT time to prevent confusion due to time zone crossing. See the EGF3318 flight status page for this flight to view local times or setup timezone preferences in your user account.

Time Position Orientation Groundspeed Altitude Reporting Facility
EDT Latitude Longitude Course Direction KTS MPH feet Rate Location/Type
05:41PM 42.0167 -87.8667 66° East 168 193 2,200  Level Chicago TRACON
05:42PM 42.0333 -87.7833 75° East 220 253 4,400 1,980 Climbing Chicago TRACON
05:43PM 42.0973 -87.5352 59° Northeast  Level FlightAware Approximate
05:44PM 42.1504 -87.4156 66° East  Level FlightAware Approximate
05:44PM 42.0861 -87.6275 65° Northeast 270 311 7,900  Level Chicago Center
05:45PM 42.1928 -87.2884 66° East  Level FlightAware Approximate
05:45PM 42.1189 -87.5311 65° Northeast 283 326 9,800  Level Chicago Center
05:46PM 42.2352 -87.1611 66° East  Level FlightAware Approximate
05:46PM 42.1544 -87.4286 65° Northeast 301 346 11,500  Level Chicago Center
05:47PM 42.1658 -87.3086 83° East 323 372 12,900 1,260 Climbing Chicago Center
05:48PM 42.1756 -87.1786 84° East 344 396 14,200 1,500 Climbing Chicago Center
05:49PM 42.1833 -87.0197 86° East 353 406 16,100 1,380 Climbing Chicago Center
05:50PM 42.1936 -86.8858 84° East 360 414 17,100 900 Climbing Chicago Center
05:51PM 42.2028 -86.7461 85° East 374 430 18,000 900 Climbing Chicago Center
05:52PM 42.2114 -86.6086 85° East 385 443 19,000 960 Climbing Chicago Center
05:53PM 42.2200 -86.4606 85° East 393 452 20,100 1,080 Climbing Chicago Center
05:54PM 42.2308 -86.2794 85° East 403 464 21,300 1,080 Climbing Chicago Center
05:55PM 42.2414 -86.1225 85° East 415 478 22,400 1,020 Climbing Chicago Center
05:56PM 42.2494 -85.9675 86° East 414 476 23,500 960 Climbing Chicago Center
05:57PM 42.2581 -85.8256 85° East 416 479 24,500 1,320 Climbing Chicago Center
05:58PM 42.2672 -85.6411 86° East 415 478 26,300 1,620 Climbing Chicago Center
05:59PM 42.2761 -85.4892 85° East 411 473 27,900 1,500 Climbing Chicago Center
06:00PM 42.2836 -85.3425 86° East 401 461 29,400 1,440 Climbing Chicago Center
06:01PM 42.2917 -85.1994 86° East 390 449 30,900 1,440 Climbing Chicago Center
06:02PM 42.2989 -85.0600 86° East 380 437 32,400 1,320 Climbing Chicago Center
06:03PM 42.2972 -84.8892 91° East 380 437 33,700 1,080 Climbing Chicago Center
06:04PM 42.2928 -84.7442 92° East 385 443 34,700 600 Climbing Chicago Center
06:05PM 42.2894 -84.5975 92° East 390 449 35,000 120 Climbing Chicago Center
06:06PM 42.2881 -84.4425 91° East 408 470 35,000  Level Chicago Center
06:07PM 42.3061 -84.3036 80° East 407 468 35,000  Level Cleveland Center
06:08PM 42.3300 -84.1475 78° East 412 474 35,000  Level Cleveland Center
06:09PM 42.3533 -83.9944 78° East 417 480 35,000  Level Cleveland Center
06:10PM 42.3747 -83.8325 80° East 422 486 35,000  Level Cleveland Center
06:11PM 42.3978 -83.6789 78° East 428 493 35,000  Level Cleveland Center
06:12PM 42.4128 -83.5025 83° East 428 493 35,000  Level Cleveland Center
06:13PM 42.4269 -83.3456 83° East 430 495 35,000  Level Cleveland Center
06:14PM 42.4456 -83.1803 81° East 430 495 35,000  Level Cleveland Center
06:15PM 42.4614 -83.0206 82° East 422 486 35,000  Level Cleveland Center
06:16PM 42.4772 -82.8606 82° East 422 486 35,000  Level Cleveland Center
06:17PM 42.4906 -82.7036 83° East 427 491 35,000  Level Cleveland Center
06:18PM 42.5058 -82.5461 82° East 427 491 35,000  Level Cleveland Center
06:19PM 42.5211 -82.3833 83° East 427 491 35,000  Level Cleveland Center
06:20PM 42.5358 -82.2289 83° East 422 486 35,000  Level Cleveland Center
06:21PM 42.5506 -82.0686 83° East 422 486 35,000  Level Cleveland Center
06:22PM 42.5650 -81.9108 83° East 422 486 35,000  Level Cleveland Center
06:23PM 42.5792 -81.7533 83° East 427 491 35,000  Level Cleveland Center
06:24PM 42.5933 -81.5900 83° East 427 491 35,000  Level Cleveland Center
06:25PM 42.6072 -81.4294 83° East 427 491 35,000  Level Cleveland Center
06:26PM 42.6208 -81.2717 83° East 427 491 35,000  Level Cleveland Center
06:27PM 42.6342 -81.1108 84° East 420 483 35,000  Level Cleveland Center
06:28PM 42.6472 -80.9531 84° East 420 483 35,000  Level Cleveland Center
06:29PM 42.6581 -80.7978 85° East 420 483 35,000  Level Cleveland Center
06:30PM 42.6728 -80.6425 83° East 420 483 35,000  Level Cleveland Center
06:31PM 42.6833 -80.5069 84° East 415 478 35,000  Level Cleveland Center
06:32PM 42.6933 -80.3486 85° East 415 478 35,000  Level Cleveland Center
06:33PM 42.7056 -80.1989 84° East 410 472 35,000  Level Cleveland Center
06:34PM 42.7153 -80.0436 85° East 400 460 35,000 -300 Level Cleveland Center
06:35PM 42.7269 -79.8881 84° East 405 466 34,400 -780 Descending Cleveland Center
06:36PM 42.7406 -79.7267 83° East 411 473 33,500 -1,500 Descending Cleveland Center
06:37PM 42.7517 -79.5625 85° East 422 486 31,500 -1,800 Descending Cleveland Center
06:38PM 42.7647 -79.3956 84° East 433 498 30,000 -1,200 Descending Cleveland Center
06:39PM 42.7733 -79.2339 86° East 433 498 29,100 -540 Descending Cleveland Center
06:40PM 42.7819 -79.0839 85° East 421 484 29,000 -600 Descending Cleveland Center
06:41PM 42.7922 -78.9336 85° East 406 467 28,000 -1,020 Descending Cleveland Center
06:42PM 42.8006 -78.7892 85° East 395 455 27,000 -1,200 Descending Cleveland Center
06:43PM 42.8086 -78.6447 86° East 389 448 25,600 -1,500 Descending Cleveland Center
06:44PM 42.8167 -78.5028 86° East 384 442 24,100 -1,500 Descending Cleveland Center
06:45PM 42.8244 -78.3639 86° East 379 436 22,700 -1,380 Descending Cleveland Center
06:46PM 42.8342 -78.2164 85° East 379 436 21,400 -900 Descending Cleveland Center
06:47PM 42.8414 -78.0631 86° East 391 450 21,000 -300 Descending Cleveland Center
06:48PM 42.8503 -77.9097 85° East 397 457 20,800 -600 Descending Cleveland Center
06:49PM 42.8572 -77.7622 86° East 397 457 19,900 -960 Descending Cleveland Center
06:50PM 42.8656 -77.5975 86° East 397 457 18,900 -960 Descending Cleveland Center
06:51PM 42.8722 -77.4528 86° East 391 450 18,000 -1,440 Descending Cleveland Center
06:52PM 42.8786 -77.3078 87° East 386 444 16,100 -1,620 Descending Cleveland Center
06:55PM 42.9011 -76.9986 84° East 350 403 12,700 -1,440 Descending Boston Center
06:55PM 42.9281 -76.8956 70° East 339 390 11,500 -900 Descending Boston Center
06:57PM 42.9581 -76.7700 72° East 326 375 11,000 -900 Descending Boston Center
06:57PM 42.9828 -76.6667 72° East 278 320 9,800 -1,380 Descending Boston Center
06:58PM 43.0072 -76.5661 72° East 278 320 8,300 -1,620 Descending Boston Center
07:00PM 43.0294 -76.4681 73° East 272 313 6,500 -1,740 Descending Boston Center
07:01PM 43.0664 -76.3653 64° Northeast 252 290 4,700 -1,740 Descending Boston Center
07:02PM 43.0894 -76.2986 65° Northeast 237 273 3,100 -1,440 Descending Boston Center
07:02PM 43.1044 -76.2314 73° East 188 216 2,100 -1,080 Descending Boston Center
07:04PM 43.1064 -76.1658 88° East 134 154 1,000 -1,020 Descending Boston Center